sensor_id;sensor_type;location;lat;lon;timestamp;P1;durP1;ratioP1;P2;durP2;ratioP2
30010;SDS011;16851;53.564;8.112;2022-09-01T00:00:31;5.97;;;1.13;;
30010;SDS011;16851;53.564;8.112;2022-09-01T00:05:38;3.50;;;1.00;;
30010;SDS011;16851;53.564;8.112;2022-09-01T00:10:45;2.58;;;1.00;;
30010;SDS011;16851;53.564;8.112;2022-09-01T00:15:54;3.63;;;1.10;;
30010;SDS011;16851;53.564;8.112;2022-09-01T00:20:57;2.33;;;0.85;;
30010;SDS011;16851;53.564;8.112;2022-09-01T00:26:03;1.80;;;0.80;;
30010;SDS011;16851;53.564;8.112;2022-09-01T00:31:05;3.55;;;0.90;;
30010;SDS011;16851;53.564;8.112;2022-09-01T00:36:11;2.63;;;0.88;;
30010;SDS011;16851;53.564;8.112;2022-09-01T00:41:16;1.40;;;0.90;;
30010;SDS011;16851;53.564;8.112;2022-09-01T00:46:23;3.72;;;0.90;;
30010;SDS011;16851;53.564;8.112;2022-09-01T00:51:29;3.42;;;0.90;;
30010;SDS011;16851;53.564;8.112;2022-09-01T00:56:40;2.75;;;0.88;;
30010;SDS011;16851;53.564;8.112;2022-09-01T01:01:49;3.25;;;1.05;;
30010;SDS011;16851;53.564;8.112;2022-09-01T01:07:12;3.25;;;0.80;;
30010;SDS011;16851;53.564;8.112;2022-09-01T01:12:15;4.30;;;0.70;;
30010;SDS011;16851;53.564;8.112;2022-09-01T01:17:19;1.10;;;0.82;;
30010;SDS011;16851;53.564;8.112;2022-09-01T01:28:21;3.25;;;0.60;;
30010;SDS011;16851;53.564;8.112;2022-09-01T01:33:30;1.92;;;0.60;;
30010;SDS011;16851;53.564;8.112;2022-09-01T01:38:39;1.40;;;0.60;;
30010;SDS011;16851;53.564;8.112;2022-09-01T01:43:44;3.00;;;0.73;;
30010;SDS011;16851;53.564;8.112;2022-09-01T01:48:51;1.35;;;0.68;;
30010;SDS011;16851;53.564;8.112;2022-09-01T01:53:54;1.77;;;0.80;;
30010;SDS011;16851;53.564;8.112;2022-09-01T01:58:59;1.40;;;0.68;;
30010;SDS011;16851;53.564;8.112;2022-09-01T02:04:05;1.55;;;0.60;;
30010;SDS011;16851;53.564;8.112;2022-09-01T02:09:13;1.25;;;0.60;;
30010;SDS011;16851;53.564;8.112;2022-09-01T02:14:25;1.00;;;0.60;;
30010;SDS011;16851;53.564;8.112;2022-09-01T02:19:30;2.58;;;0.77;;
30010;SDS011;16851;53.564;8.112;2022-09-01T02:24:31;1.10;;;0.60;;
30010;SDS011;16851;53.564;8.112;2022-09-01T02:29:36;1.10;;;0.52;;
30010;SDS011;16851;53.564;8.112;2022-09-01T02:34:44;2.15;;;1.08;;
30010;SDS011;16851;53.564;8.112;2022-09-01T02:39:54;1.00;;;0.70;;
30010;SDS011;16851;53.564;8.112;2022-09-01T02:45:00;2.38;;;0.82;;
30010;SDS011;16851;53.564;8.112;2022-09-01T02:50:03;3.88;;;0.80;;
30010;SDS011;16851;53.564;8.112;2022-09-01T02:55:07;2.58;;;0.90;;
30010;SDS011;16851;53.564;8.112;2022-09-01T03:00:12;3.30;;;0.90;;
30010;SDS011;16851;53.564;8.112;2022-09-01T03:05:39;1.27;;;0.80;;
30010;SDS011;16851;53.564;8.112;2022-09-01T03:10:45;2.80;;;0.95;;
30010;SDS011;16851;53.564;8.112;2022-09-01T03:15:47;1.75;;;1.00;;
30010;SDS011;16851;53.564;8.112;2022-09-01T03:20:54;1.73;;;0.80;;
30010;SDS011;16851;53.564;8.112;2022-09-01T03:25:59;3.90;;;1.00;;
30010;SDS011;16851;53.564;8.112;2022-09-01T03:31:03;3.10;;;0.90;;
30010;SDS011;16851;53.564;8.112;2022-09-01T03:36:07;1.17;;;0.90;;
30010;SDS011;16851;53.564;8.112;2022-09-01T03:41:22;2.13;;;1.05;;
30010;SDS011;16851;53.564;8.112;2022-09-01T03:46:26;1.20;;;0.90;;
30010;SDS011;16851;53.564;8.112;2022-09-01T03:51:41;2.05;;;0.88;;
30010;SDS011;16851;53.564;8.112;2022-09-01T03:56:47;3.00;;;0.93;;
30010;SDS011;16851;53.564;8.112;2022-09-01T04:01:51;4.97;;;1.33;;
30010;SDS011;16851;53.564;8.112;2022-09-01T04:06:53;2.72;;;1.25;;
30010;SDS011;16851;53.564;8.112;2022-09-01T04:12:05;1.55;;;1.15;;
30010;SDS011;16851;53.564;8.112;2022-09-01T04:17:11;1.75;;;1.20;;
30010;SDS011;16851;53.564;8.112;2022-09-01T04:22:34;2.20;;;1.50;;
30010;SDS011;16851;53.564;8.112;2022-09-01T04:27:39;2.17;;;1.40;;
30010;SDS011;16851;53.564;8.112;2022-09-01T04:32:47;22.98;;;2.67;;
30010;SDS011;16851;53.564;8.112;2022-09-01T04:37:54;5.07;;;1.48;;
30010;SDS011;16851;53.564;8.112;2022-09-01T04:43:02;2.17;;;1.30;;
30010;SDS011;16851;53.564;8.112;2022-09-01T04:48:04;2.45;;;1.38;;
30010;SDS011;16851;53.564;8.112;2022-09-01T04:53:08;1.90;;;1.20;;
30010;SDS011;16851;53.564;8.112;2022-09-01T04:58:17;5.25;;;1.58;;
30010;SDS011;16851;53.564;8.112;2022-09-01T05:03:25;1.50;;;1.05;;
30010;SDS011;16851;53.564;8.112;2022-09-01T05:08:48;2.38;;;1.08;;
30010;SDS011;16851;53.564;8.112;2022-09-01T05:14:11;3.33;;;1.10;;
30010;SDS011;16851;53.564;8.112;2022-09-01T05:19:16;3.83;;;1.52;;
30010;SDS011;16851;53.564;8.112;2022-09-01T05:24:24;2.35;;;1.42;;
30010;SDS011;16851;53.564;8.112;2022-09-01T05:29:33;4.00;;;1.40;;
30010;SDS011;16851;53.564;8.112;2022-09-01T05:34:40;1.88;;;1.40;;
30010;SDS011;16851;53.564;8.112;2022-09-01T05:39:44;2.75;;;1.45;;
30010;SDS011;16851;53.564;8.112;2022-09-01T05:44:48;3.85;;;1.75;;
30010;SDS011;16851;53.564;8.112;2022-09-01T05:49:53;3.17;;;1.38;;
30010;SDS011;16851;53.564;8.112;2022-09-01T05:54:59;9.90;;;1.60;;
30010;SDS011;16851;53.564;8.112;2022-09-01T06:00:07;8.02;;;1.48;;
30010;SDS011;16851;53.564;8.112;2022-09-01T06:05:14;6.18;;;2.30;;
30010;SDS011;16851;53.564;8.112;2022-09-01T06:10:17;2.10;;;1.20;;
30010;SDS011;16851;53.564;8.112;2022-09-01T06:15:23;2.88;;;1.60;;
30010;SDS011;16851;53.564;8.112;2022-09-01T06:20:30;4.93;;;1.38;;
30010;SDS011;16851;53.564;8.112;2022-09-01T06:25:35;1.95;;;1.38;;
30010;SDS011;16851;53.564;8.112;2022-09-01T06:30:39;2.42;;;1.40;;
30010;SDS011;16851;53.564;8.112;2022-09-01T06:35:46;4.13;;;1.40;;
30010;SDS011;16851;53.564;8.112;2022-09-01T06:41:03;3.72;;;1.48;;
30010;SDS011;16851;53.564;8.112;2022-09-01T06:46:09;6.22;;;1.30;;
30010;SDS011;16851;53.564;8.112;2022-09-01T06:51:20;2.65;;;1.30;;
30010;SDS011;16851;53.564;8.112;2022-09-01T06:56:26;1.35;;;1.17;;
30010;SDS011;16851;53.564;8.112;2022-09-01T07:01:38;2.00;;;1.13;;
30010;SDS011;16851;53.564;8.112;2022-09-01T07:06:40;1.58;;;1.00;;
30010;SDS011;16851;53.564;8.112;2022-09-01T07:12:21;5.35;;;1.30;;
30010;SDS011;16851;53.564;8.112;2022-09-01T07:17:26;3.53;;;1.10;;
30010;SDS011;16851;53.564;8.112;2022-09-01T07:22:33;14.88;;;2.35;;
30010;SDS011;16851;53.564;8.112;2022-09-01T07:27:59;3.15;;;1.17;;
30010;SDS011;16851;53.564;8.112;2022-09-01T07:33:06;2.78;;;1.00;;
30010;SDS011;16851;53.564;8.112;2022-09-01T07:38:33;3.22;;;1.33;;
30010;SDS011;16851;53.564;8.112;2022-09-01T07:43:57;6.15;;;1.27;;
30010;SDS011;16851;53.564;8.112;2022-09-01T07:49:08;5.32;;;1.10;;
30010;SDS011;16851;53.564;8.112;2022-09-01T07:54:31;2.72;;;1.30;;
30010;SDS011;16851;53.564;8.112;2022-09-01T07:59:37;3.40;;;1.38;;
30010;SDS011;16851;53.564;8.112;2022-09-01T08:04:54;2.08;;;1.35;;
30010;SDS011;16851;53.564;8.112;2022-09-01T08:09:58;3.45;;;1.40;;
30010;SDS011;16851;53.564;8.112;2022-09-01T08:15:07;4.85;;;1.30;;
30010;SDS011;16851;53.564;8.112;2022-09-01T08:20:30;2.45;;;1.10;;
30010;SDS011;16851;53.564;8.112;2022-09-01T08:25:46;3.38;;;1.00;;
30010;SDS011;16851;53.564;8.112;2022-09-01T08:30:53;2.83;;;1.23;;
30010;SDS011;16851;53.564;8.112;2022-09-01T08:35:57;2.22;;;1.08;;
30010;SDS011;16851;53.564;8.112;2022-09-01T08:41:04;1.77;;;1.27;;
30010;SDS011;16851;53.564;8.112;2022-09-01T08:46:15;4.78;;;1.48;;
30010;SDS011;16851;53.564;8.112;2022-09-01T08:51:37;3.05;;;1.20;;
30010;SDS011;16851;53.564;8.112;2022-09-01T08:56:42;2.20;;;0.90;;
30010;SDS011;16851;53.564;8.112;2022-09-01T09:07:06;3.92;;;1.50;;
30010;SDS011;16851;53.564;8.112;2022-09-01T09:12:25;3.35;;;1.00;;
30010;SDS011;16851;53.564;8.112;2022-09-01T09:17:34;1.85;;;0.95;;
30010;SDS011;16851;53.564;8.112;2022-09-01T09:22:40;4.97;;;1.10;;
30010;SDS011;16851;53.564;8.112;2022-09-01T09:27:48;1.70;;;0.90;;
30010;SDS011;16851;53.564;8.112;2022-09-01T09:33:05;3.22;;;1.10;;
30010;SDS011;16851;53.564;8.112;2022-09-01T09:38:33;3.25;;;1.02;;
30010;SDS011;16851;53.564;8.112;2022-09-01T09:43:37;3.83;;;1.05;;
30010;SDS011;16851;53.564;8.112;2022-09-01T09:54:38;4.18;;;1.00;;
30010;SDS011;16851;53.564;8.112;2022-09-01T09:59:47;2.55;;;0.77;;
30010;SDS011;16851;53.564;8.112;2022-09-01T10:05:20;1.98;;;0.93;;
30010;SDS011;16851;53.564;8.112;2022-09-01T10:10:42;1.55;;;0.57;;
30010;SDS011;16851;53.564;8.112;2022-09-01T10:16:01;2.50;;;0.60;;
30010;SDS011;16851;53.564;8.112;2022-09-01T10:21:14;3.47;;;0.65;;
30010;SDS011;16851;53.564;8.112;2022-09-01T10:26:36;1.60;;;0.50;;
30010;SDS011;16851;53.564;8.112;2022-09-01T10:31:40;0.90;;;0.43;;
30010;SDS011;16851;53.564;8.112;2022-09-01T10:36:46;1.08;;;0.40;;
30010;SDS011;16851;53.564;8.112;2022-09-01T10:41:57;1.05;;;0.45;;
30010;SDS011;16851;53.564;8.112;2022-09-01T11:03:51;2.45;;;0.63;;
30010;SDS011;16851;53.564;8.112;2022-09-01T11:08:59;3.08;;;0.93;;
30010;SDS011;16851;53.564;8.112;2022-09-01T11:14:21;1.77;;;0.60;;
30010;SDS011;16851;53.564;8.112;2022-09-01T11:29:56;1.55;;;0.60;;
30010;SDS011;16851;53.564;8.112;2022-09-01T11:35:18;1.77;;;0.63;;
30010;SDS011;16851;53.564;8.112;2022-09-01T11:40:26;5.32;;;0.70;;
30010;SDS011;16851;53.564;8.112;2022-09-01T11:45:44;2.75;;;0.70;;
30010;SDS011;16851;53.564;8.112;2022-09-01T11:50:58;1.63;;;0.50;;
30010;SDS011;16851;53.564;8.112;2022-09-01T11:56:16;2.47;;;0.60;;
30010;SDS011;16851;53.564;8.112;2022-09-01T12:01:34;3.60;;;0.60;;
30010;SDS011;16851;53.564;8.112;2022-09-01T12:06:37;2.15;;;0.55;;
30010;SDS011;16851;53.564;8.112;2022-09-01T12:11:40;2.58;;;0.82;;
30010;SDS011;16851;53.564;8.112;2022-09-01T12:16:44;4.78;;;0.63;;
30010;SDS011;16851;53.564;8.112;2022-09-01T12:22:12;2.53;;;0.70;;
30010;SDS011;16851;53.564;8.112;2022-09-01T12:27:18;2.88;;;0.57;;
30010;SDS011;16851;53.564;8.112;2022-09-01T12:32:24;2.53;;;0.60;;
30010;SDS011;16851;53.564;8.112;2022-09-01T12:37:26;3.15;;;0.65;;
30010;SDS011;16851;53.564;8.112;2022-09-01T12:42:29;3.05;;;0.57;;
30010;SDS011;16851;53.564;8.112;2022-09-01T12:47:45;1.10;;;0.55;;
30010;SDS011;16851;53.564;8.112;2022-09-01T12:52:54;4.45;;;0.50;;
30010;SDS011;16851;53.564;8.112;2022-09-01T12:57:59;3.72;;;0.60;;
30010;SDS011;16851;53.564;8.112;2022-09-01T13:03:10;1.45;;;0.63;;
30010;SDS011;16851;53.564;8.112;2022-09-01T13:08:18;2.30;;;0.40;;
30010;SDS011;16851;53.564;8.112;2022-09-01T13:13:25;2.42;;;0.65;;
30010;SDS011;16851;53.564;8.112;2022-09-01T13:18:30;0.77;;;0.40;;
30010;SDS011;16851;53.564;8.112;2022-09-01T13:23:54;1.42;;;0.57;;
30010;SDS011;16851;53.564;8.112;2022-09-01T13:28:57;0.90;;;0.47;;
30010;SDS011;16851;53.564;8.112;2022-09-01T13:34:01;3.70;;;0.80;;
30010;SDS011;16851;53.564;8.112;2022-09-01T13:39:26;2.45;;;0.88;;
30010;SDS011;16851;53.564;8.112;2022-09-01T13:44:27;4.78;;;0.80;;
30010;SDS011;16851;53.564;8.112;2022-09-01T13:49:30;2.67;;;0.70;;
30010;SDS011;16851;53.564;8.112;2022-09-01T13:54:54;1.95;;;0.60;;
30010;SDS011;16851;53.564;8.112;2022-09-01T14:00:04;2.63;;;0.50;;
30010;SDS011;16851;53.564;8.112;2022-09-01T14:05:10;3.17;;;0.60;;
30010;SDS011;16851;53.564;8.112;2022-09-01T14:10:17;1.23;;;0.60;;
30010;SDS011;16851;53.564;8.112;2022-09-01T14:15:26;3.70;;;0.82;;
30010;SDS011;16851;53.564;8.112;2022-09-01T14:20:32;2.55;;;0.60;;
30010;SDS011;16851;53.564;8.112;2022-09-01T14:25:46;1.65;;;0.52;;
30010;SDS011;16851;53.564;8.112;2022-09-01T14:30:51;2.33;;;0.50;;
30010;SDS011;16851;53.564;8.112;2022-09-01T14:35:52;2.17;;;0.30;;
30010;SDS011;16851;53.564;8.112;2022-09-01T14:40:54;1.75;;;0.60;;
30010;SDS011;16851;53.564;8.112;2022-09-01T14:46:08;2.15;;;0.38;;
30010;SDS011;16851;53.564;8.112;2022-09-01T14:51:18;1.35;;;0.43;;
30010;SDS011;16851;53.564;8.112;2022-09-01T14:56:26;3.38;;;0.50;;
30010;SDS011;16851;53.564;8.112;2022-09-01T15:01:30;1.42;;;0.50;;
30010;SDS011;16851;53.564;8.112;2022-09-01T15:06:38;3.70;;;0.80;;
30010;SDS011;16851;53.564;8.112;2022-09-01T15:11:41;3.17;;;0.60;;
30010;SDS011;16851;53.564;8.112;2022-09-01T15:16:45;2.20;;;0.50;;
30010;SDS011;16851;53.564;8.112;2022-09-01T15:21:51;1.85;;;0.43;;
30010;SDS011;16851;53.564;8.112;2022-09-01T15:26:57;3.28;;;0.70;;
30010;SDS011;16851;53.564;8.112;2022-09-01T15:32:01;1.58;;;0.47;;
30010;SDS011;16851;53.564;8.112;2022-09-01T15:37:05;2.67;;;0.98;;
30010;SDS011;16851;53.564;8.112;2022-09-01T15:42:10;2.17;;;0.50;;
30010;SDS011;16851;53.564;8.112;2022-09-01T15:47:17;2.03;;;0.60;;
30010;SDS011;16851;53.564;8.112;2022-09-01T15:52:19;5.95;;;0.93;;
30010;SDS011;16851;53.564;8.112;2022-09-01T15:57:23;4.13;;;0.73;;
30010;SDS011;16851;53.564;8.112;2022-09-01T16:02:28;3.47;;;0.60;;
30010;SDS011;16851;53.564;8.112;2022-09-01T16:07:34;4.45;;;0.77;;
30010;SDS011;16851;53.564;8.112;2022-09-01T16:12:36;5.03;;;0.60;;
30010;SDS011;16851;53.564;8.112;2022-09-01T16:23:15;2.45;;;0.65;;
30010;SDS011;16851;53.564;8.112;2022-09-01T16:33:34;3.92;;;0.60;;
30010;SDS011;16851;53.564;8.112;2022-09-01T16:44:02;2.80;;;0.82;;
30010;SDS011;16851;53.564;8.112;2022-09-01T16:59:51;3.65;;;0.88;;
30010;SDS011;16851;53.564;8.112;2022-09-01T17:15:38;4.68;;;0.57;;
30010;SDS011;16851;53.564;8.112;2022-09-01T17:20:42;2.65;;;0.60;;
30010;SDS011;16851;53.564;8.112;2022-09-01T17:26:00;9.20;;;0.85;;
30010;SDS011;16851;53.564;8.112;2022-09-01T17:31:11;2.35;;;0.60;;
30010;SDS011;16851;53.564;8.112;2022-09-01T17:41:53;2.67;;;0.63;;
30010;SDS011;16851;53.564;8.112;2022-09-01T17:52:13;2.42;;;0.50;;
30010;SDS011;16851;53.564;8.112;2022-09-01T17:57:31;5.38;;;0.57;;
30010;SDS011;16851;53.564;8.112;2022-09-01T18:18:59;2.97;;;0.60;;
30010;SDS011;16851;53.564;8.112;2022-09-01T18:24:07;3.03;;;0.50;;
30010;SDS011;16851;53.564;8.112;2022-09-01T18:29:16;3.28;;;0.60;;
30010;SDS011;16851;53.564;8.112;2022-09-01T19:01:06;2.33;;;0.65;;
30010;SDS011;16851;53.564;8.112;2022-09-01T19:06:18;4.88;;;0.70;;
30010;SDS011;16851;53.564;8.112;2022-09-01T19:11:47;0.88;;;0.50;;
30010;SDS011;16851;53.564;8.112;2022-09-01T19:22:39;3.85;;;0.73;;
30010;SDS011;16851;53.564;8.112;2022-09-01T19:33:03;5.40;;;0.82;;
30010;SDS011;16851;53.564;8.112;2022-09-01T19:38:08;3.40;;;0.60;;
30010;SDS011;16851;53.564;8.112;2022-09-01T19:43:14;3.45;;;0.70;;
30010;SDS011;16851;53.564;8.112;2022-09-01T19:48:21;2.65;;;0.55;;
30010;SDS011;16851;53.564;8.112;2022-09-01T20:03:58;2.75;;;0.70;;
30010;SDS011;16851;53.564;8.112;2022-09-01T20:25:14;5.72;;;0.80;;
30010;SDS011;16851;53.564;8.112;2022-09-01T20:30:26;3.22;;;0.80;;
30010;SDS011;16851;53.564;8.112;2022-09-01T20:40:53;1.80;;;0.60;;
30010;SDS011;16851;53.564;8.112;2022-09-01T20:46:03;5.45;;;0.80;;
30010;SDS011;16851;53.564;8.112;2022-09-01T20:51:07;2.63;;;0.93;;
30010;SDS011;16851;53.564;8.112;2022-09-01T20:56:52;1.23;;;0.60;;
30010;SDS011;16851;53.564;8.112;2022-09-01T21:07:27;5.75;;;0.80;;
30010;SDS011;16851;53.564;8.112;2022-09-01T21:23:43;1.60;;;0.70;;
30010;SDS011;16851;53.564;8.112;2022-09-01T21:28:47;1.58;;;0.70;;
30010;SDS011;16851;53.564;8.112;2022-09-01T21:34:01;2.95;;;0.70;;
30010;SDS011;16851;53.564;8.112;2022-09-01T21:39:08;1.73;;;0.70;;
30010;SDS011;16851;53.564;8.112;2022-09-01T21:44:10;1.48;;;0.85;;
30010;SDS011;16851;53.564;8.112;2022-09-01T21:49:16;1.92;;;0.70;;
30010;SDS011;16851;53.564;8.112;2022-09-01T21:54:18;2.15;;;0.90;;
30010;SDS011;16851;53.564;8.112;2022-09-01T21:59:20;1.27;;;0.80;;
30010;SDS011;16851;53.564;8.112;2022-09-01T22:04:24;1.00;;;0.52;;
30010;SDS011;16851;53.564;8.112;2022-09-01T22:09:26;1.58;;;0.70;;
30010;SDS011;16851;53.564;8.112;2022-09-01T22:14:28;0.85;;;0.70;;
30010;SDS011;16851;53.564;8.112;2022-09-01T22:19:33;3.22;;;0.80;;
30010;SDS011;16851;53.564;8.112;2022-09-01T22:24:38;1.67;;;0.70;;
30010;SDS011;16851;53.564;8.112;2022-09-01T22:29:43;1.88;;;0.93;;
30010;SDS011;16851;53.564;8.112;2022-09-01T22:34:46;4.88;;;0.95;;
30010;SDS011;16851;53.564;8.112;2022-09-01T22:39:49;1.77;;;0.77;;
30010;SDS011;16851;53.564;8.112;2022-09-01T22:44:53;4.15;;;0.80;;
30010;SDS011;16851;53.564;8.112;2022-09-01T22:49:57;0.80;;;0.60;;
30010;SDS011;16851;53.564;8.112;2022-09-01T22:55:02;1.02;;;0.60;;
30010;SDS011;16851;53.564;8.112;2022-09-01T23:00:07;1.35;;;0.60;;
30010;SDS011;16851;53.564;8.112;2022-09-01T23:05:10;1.42;;;0.60;;
30010;SDS011;16851;53.564;8.112;2022-09-01T23:10:12;1.58;;;0.60;;
30010;SDS011;16851;53.564;8.112;2022-09-01T23:15:16;1.08;;;0.63;;
30010;SDS011;16851;53.564;8.112;2022-09-01T23:20:17;1.77;;;0.80;;
30010;SDS011;16851;53.564;8.112;2022-09-01T23:25:25;1.15;;;0.68;;
30010;SDS011;16851;53.564;8.112;2022-09-01T23:30:27;4.93;;;0.75;;
30010;SDS011;16851;53.564;8.112;2022-09-01T23:35:34;2.80;;;0.70;;
30010;SDS011;16851;53.564;8.112;2022-09-01T23:40:45;1.45;;;0.68;;
30010;SDS011;16851;53.564;8.112;2022-09-01T23:45:51;0.80;;;0.52;;
30010;SDS011;16851;53.564;8.112;2022-09-01T23:51:05;2.30;;;0.68;;
30010;SDS011;16851;53.564;8.112;2022-09-01T23:56:14;0.88;;;0.52;;
